createdAt,value
2018-01-20T00:00:19.357Z,0
2018-01-20T00:01:00.045Z,0
2018-01-20T00:01:40.330Z,0
2018-01-20T00:02:20.920Z,0
2018-01-20T00:03:01.476Z,0
2018-01-20T00:03:41.988Z,0
2018-01-20T00:04:22.898Z,0
2018-01-20T00:05:03.311Z,0
2018-01-20T00:05:43.741Z,0
2018-01-20T00:06:24.122Z,0
2018-01-20T00:07:04.546Z,0
2018-01-20T00:07:44.947Z,0
2018-01-20T00:08:25.635Z,0
2018-01-20T00:09:06.008Z,0
2018-01-20T00:09:46.301Z,0
2018-01-20T00:10:27.200Z,0
2018-01-20T00:11:07.731Z,0
2018-01-20T00:11:47.982Z,0
2018-01-20T00:12:28.703Z,0
2018-01-20T00:13:09.153Z,0
2018-01-20T00:13:50.394Z,0
2018-01-20T00:14:30.443Z,0
2018-01-20T00:15:10.873Z,0
2018-01-20T00:15:51.732Z,0
2018-01-20T00:16:32.264Z,0
2018-01-20T00:17:12.694Z,0
2018-01-20T00:17:53.298Z,0
2018-01-20T00:18:33.637Z,0
2018-01-20T00:19:14.159Z,0
2018-01-20T00:19:54.357Z,0
2018-01-20T00:20:34.754Z,0
2018-01-20T00:21:15.295Z,0
2018-01-20T00:21:55.698Z,0
2018-01-20T00:22:36.068Z,0
2018-01-20T00:23:16.469Z,0
2018-01-20T00:23:56.893Z,0
2018-01-20T00:24:37.385Z,0
2018-01-20T00:25:17.776Z,0
2018-01-20T00:25:58.554Z,0
2018-01-20T00:26:38.890Z,0
2018-01-20T00:27:19.334Z,0
2018-01-20T00:27:59.773Z,0
2018-01-20T00:28:40.188Z,0
2018-01-20T00:29:20.608Z,0
2018-01-20T00:30:01.108Z,0
2018-01-20T00:30:41.378Z,0
2018-01-20T00:31:21.824Z,0
2018-01-20T00:32:02.227Z,0
2018-01-20T00:32:42.609Z,0
2018-01-20T00:33:23.817Z,0
2018-01-20T00:34:03.723Z,0
2018-01-20T00:34:44.127Z,0
2018-01-20T00:35:24.577Z,0
2018-01-20T00:36:05.058Z,0
2018-01-20T00:36:45.480Z,0
2018-01-20T00:37:25.777Z,0
2018-01-20T00:38:06.152Z,0
2018-01-20T00:38:46.637Z,0
2018-01-20T00:39:27.025Z,0
2018-01-20T00:40:07.496Z,0
2018-01-20T00:40:48.011Z,0
2018-01-20T00:41:28.418Z,0
2018-01-20T00:42:08.933Z,0
2018-01-20T00:42:49.294Z,0
2018-01-20T00:43:29.688Z,0
2018-01-20T00:45:29.976Z,0
2018-01-20T00:46:10.241Z,0
2018-01-20T00:46:50.717Z,0
2018-01-20T00:47:31.075Z,0
2018-01-20T00:48:11.521Z,0
2018-01-20T00:48:51.888Z,0
2018-01-20T00:49:32.396Z,0
2018-01-20T00:50:12.831Z,0
2018-01-20T00:50:53.212Z,0
2018-01-20T00:51:33.589Z,0
2018-01-20T00:52:14.074Z,0
2018-01-20T00:52:54.401Z,0
2018-01-20T00:53:34.811Z,0
2018-01-20T00:54:15.184Z,0
2018-01-20T00:54:55.626Z,0
2018-01-20T00:55:36.191Z,0
2018-01-20T00:56:17.183Z,0
2018-01-20T00:56:58.040Z,0
2018-01-20T00:57:38.456Z,0
2018-01-20T00:58:18.831Z,0
2018-01-20T00:58:59.225Z,0
2018-01-20T00:59:39.661Z,0
2018-01-20T01:00:20.007Z,0
2018-01-20T01:01:00.399Z,0
2018-01-20T01:01:40.900Z,0
2018-01-20T01:02:21.319Z,0
2018-01-20T01:03:01.661Z,0
2018-01-20T01:03:42.077Z,0
2018-01-20T01:04:22.483Z,0
2018-01-20T01:05:02.857Z,0
2018-01-20T01:07:21.347Z,0
2018-01-20T01:08:07.718Z,0
2018-01-20T01:08:53.715Z,0
2018-01-20T01:09:34.089Z,0
2018-01-20T01:10:14.482Z,0
2018-01-20T01:10:54.909Z,0
2018-01-20T01:11:35.283Z,0
2018-01-20T01:12:15.692Z,0
2018-01-20T01:12:56.321Z,0
2018-01-20T01:13:36.730Z,0
2018-01-20T01:14:17.053Z,0
2018-01-20T01:14:57.665Z,0
2018-01-20T01:15:37.939Z,0
2018-01-20T01:16:18.254Z,0
2018-01-20T01:16:58.781Z,0
2018-01-20T01:17:39.923Z,0
2018-01-20T01:18:19.650Z,0
2018-01-20T01:19:00.046Z,0
2018-01-20T01:19:40.383Z,0
2018-01-20T01:20:21.213Z,0
2018-01-20T01:21:01.547Z,0
2018-01-20T01:21:41.924Z,0
2018-01-20T01:22:22.344Z,0
2018-01-20T01:23:03.054Z,0
2018-01-20T01:25:16.733Z,0
2018-01-20T01:25:56.950Z,0
2018-01-20T01:26:37.409Z,0
2018-01-20T01:27:17.760Z,0
2018-01-20T01:27:58.533Z,0
2018-01-20T01:28:38.643Z,0
2018-01-20T01:29:18.959Z,0
2018-01-20T01:29:59.471Z,0
2018-01-20T01:30:39.863Z,0
2018-01-20T01:31:20.500Z,0
2018-01-20T01:32:00.886Z,0
2018-01-20T01:32:41.283Z,0
2018-01-20T01:33:22.428Z,0
2018-01-20T01:34:02.383Z,0
2018-01-20T01:34:42.809Z,0
2018-01-20T01:35:23.249Z,0
2018-01-20T01:36:03.672Z,0
2018-01-20T01:36:44.124Z,0
2018-01-20T01:37:24.679Z,0
2018-01-20T01:38:05.108Z,0
2018-01-20T01:38:45.721Z,0
2018-01-20T01:39:26.358Z,0
2018-01-20T01:40:06.903Z,0
2018-01-20T01:40:47.379Z,0
2018-01-20T01:41:27.770Z,0
2018-01-20T01:42:08.170Z,0
2018-01-20T01:42:48.533Z,0
2018-01-20T01:43:28.939Z,0
2018-01-20T01:44:09.407Z,0
2018-01-20T01:44:49.861Z,0
2018-01-20T01:45:30.509Z,0
2018-01-20T01:46:10.906Z,0
2018-01-20T01:46:51.385Z,0
2018-01-20T01:47:31.926Z,0
2018-01-20T01:48:12.696Z,0
2018-01-20T01:48:53.091Z,0
2018-01-20T01:50:57.891Z,0
2018-01-20T01:51:38.625Z,0
2018-01-20T01:52:21.851Z,0
2018-01-20T01:53:04.957Z,0
2018-01-20T01:53:48.333Z,0
2018-01-20T01:54:28.837Z,0
2018-01-20T01:55:13.487Z,0
2018-01-20T01:55:53.901Z,0
2018-01-20T01:56:34.790Z,0
2018-01-20T01:57:15.198Z,0
2018-01-20T01:57:55.624Z,0
2018-01-20T01:58:36.014Z,0
2018-01-20T02:01:11.195Z,0
2018-01-20T02:01:51.642Z,0
2018-01-20T02:02:31.938Z,0
2018-01-20T02:03:12.411Z,0
2018-01-20T02:03:52.761Z,0
2018-01-20T02:04:33.115Z,0
2018-01-20T02:05:13.524Z,0
2018-01-20T02:05:54.205Z,0
2018-01-20T02:06:34.281Z,0
2018-01-20T02:07:15.025Z,0
2018-01-20T02:07:55.475Z,0
2018-01-20T02:08:36.048Z,0
2018-01-20T02:09:16.235Z,0
2018-01-20T02:09:56.728Z,0
2018-01-20T02:10:37.083Z,0
2018-01-20T02:11:17.503Z,0
2018-01-20T02:11:58.096Z,0
2018-01-20T02:12:38.495Z,0
2018-01-20T02:13:18.916Z,0
2018-01-20T02:13:59.585Z,0
2018-01-20T02:14:39.789Z,0
2018-01-20T02:15:20.589Z,0
2018-01-20T02:16:00.977Z,0
2018-01-20T02:16:41.324Z,0
2018-01-20T02:17:22.029Z,0
2018-01-20T02:18:02.423Z,0
2018-01-20T02:18:42.904Z,0
2018-01-20T02:19:23.378Z,0
2018-01-20T02:20:03.740Z,0
2018-01-20T02:20:44.194Z,0
2018-01-20T02:21:24.578Z,0
2018-01-20T02:22:04.980Z,0
2018-01-20T02:22:45.674Z,0
2018-01-20T02:23:25.932Z,0
2018-01-20T02:24:06.399Z,0
2018-01-20T02:24:46.772Z,0
2018-01-20T02:25:27.242Z,0
2018-01-20T02:26:07.680Z,0
2018-01-20T02:26:48.124Z,0
2018-01-20T02:27:28.519Z,0
2018-01-20T02:28:09.171Z,0
2018-01-20T02:28:49.594Z,0
2018-01-20T02:29:30.303Z,0
2018-01-20T02:30:10.637Z,0
2018-01-20T02:30:51.195Z,0
2018-01-20T02:31:31.922Z,0
2018-01-20T02:33:46.534Z,0
2018-01-20T02:34:28.622Z,0
2018-01-20T02:35:08.976Z,0
2018-01-20T02:35:49.411Z,0
2018-01-20T02:36:29.904Z,0
2018-01-20T02:37:10.423Z,0
2018-01-20T02:37:50.843Z,0
2018-01-20T02:38:31.330Z,0
2018-01-20T02:39:11.761Z,0
2018-01-20T02:39:52.742Z,0
2018-01-20T02:40:32.539Z,0
2018-01-20T02:41:12.928Z,0
2018-01-20T02:41:53.289Z,0
2018-01-20T02:42:33.713Z,0
2018-01-20T02:43:14.320Z,0
2018-01-20T02:43:54.557Z,0
2018-01-20T02:45:56.772Z,0
2018-01-20T02:46:37.648Z,0
2018-01-20T02:47:18.761Z,0
2018-01-20T02:47:59.169Z,0
2018-01-20T02:48:39.864Z,0
2018-01-20T02:49:20.345Z,0
2018-01-20T02:50:00.783Z,0
2018-01-20T02:50:41.114Z,0
2018-01-20T02:51:21.514Z,0
2018-01-20T02:52:01.918Z,0
2018-01-20T02:52:42.917Z,0
2018-01-20T02:53:23.938Z,0
2018-01-20T02:54:04.238Z,0
2018-01-20T02:54:44.649Z,0
2018-01-20T02:55:25.244Z,0
2018-01-20T02:56:05.720Z,0
2018-01-20T02:56:46.256Z,0
2018-01-20T02:57:26.704Z,0
2018-01-20T02:59:59.073Z,0
2018-01-20T03:00:39.225Z,0
2018-01-20T03:01:19.559Z,0
2018-01-20T03:03:40.824Z,0
2018-01-20T03:04:22.044Z,0
2018-01-20T03:05:02.768Z,0
2018-01-20T03:05:43.326Z,0
2018-01-20T03:06:23.756Z,0
2018-01-20T03:07:04.304Z,0
2018-01-20T03:07:44.853Z,0
2018-01-20T03:08:25.750Z,0
2018-01-20T03:09:05.818Z,0
2018-01-20T03:09:46.470Z,0
2018-01-20T03:13:50.166Z,0
2018-01-20T03:14:30.488Z,0
2018-01-20T03:15:11.044Z,0
2018-01-20T03:15:51.453Z,0
2018-01-20T03:16:31.911Z,0
2018-01-20T03:17:12.303Z,0
2018-01-20T03:17:52.832Z,0
2018-01-20T03:18:33.309Z,0
2018-01-20T03:19:14.387Z,0
2018-01-20T03:19:54.700Z,0
2018-01-20T03:20:35.248Z,0
2018-01-20T03:21:15.455Z,0
2018-01-20T03:21:56.558Z,0
2018-01-20T03:22:36.737Z,0
2018-01-20T03:23:18.300Z,0
2018-01-20T03:23:59.569Z,0
2018-01-20T03:24:39.894Z,0
2018-01-20T03:25:20.356Z,0
2018-01-20T03:26:01.650Z,0
2018-01-20T03:26:41.694Z,0
2018-01-20T03:27:23.559Z,0
2018-01-20T03:28:03.977Z,0
2018-01-20T03:28:45.011Z,0
2018-01-20T03:29:25.368Z,0
2018-01-20T03:30:05.760Z,0
2018-01-20T03:30:46.130Z,0
2018-01-20T03:31:26.608Z,0
2018-01-20T03:32:07.032Z,0
2018-01-20T03:32:47.549Z,0
2018-01-20T03:33:27.808Z,0
2018-01-20T03:34:08.340Z,0
2018-01-20T03:34:49.075Z,0
2018-01-20T03:35:29.814Z,0
2018-01-20T03:36:10.041Z,0
2018-01-20T03:36:50.548Z,0
2018-01-20T03:37:30.917Z,0
2018-01-20T03:38:11.321Z,0
2018-01-20T03:40:09.986Z,0
2018-01-20T03:40:50.413Z,0
2018-01-20T03:41:30.922Z,0
2018-01-20T03:42:11.513Z,0
2018-01-20T03:42:51.919Z,0
2018-01-20T03:43:32.677Z,0
2018-01-20T03:44:13.117Z,0
2018-01-20T03:44:53.651Z,0
2018-01-20T03:45:34.440Z,0
2018-01-20T03:46:14.982Z,0
2018-01-20T03:46:55.805Z,0
2018-01-20T03:47:36.754Z,0
2018-01-20T03:48:17.465Z,0
2018-01-20T03:48:57.764Z,0
2018-01-20T03:49:38.176Z,0
2018-01-20T03:50:18.682Z,0
2018-01-20T03:50:59.050Z,0
2018-01-20T03:51:39.477Z,0
2018-01-20T03:52:19.882Z,0
2018-01-20T03:53:00.402Z,0
2018-01-20T03:53:40.825Z,0
2018-01-20T03:54:21.225Z,0
2018-01-20T03:55:01.628Z,0
2018-01-20T03:55:42.183Z,0
2018-01-20T03:56:22.841Z,0
2018-01-20T03:57:03.005Z,0
2018-01-20T03:57:44.043Z,0
2018-01-20T03:58:23.981Z,0
2018-01-20T03:59:04.540Z,0
2018-01-20T03:59:44.897Z,0
2018-01-20T04:00:25.412Z,0
2018-01-20T04:01:05.734Z,0
2018-01-20T04:01:46.249Z,0
2018-01-20T04:44:55.145Z,0
2018-01-20T04:45:37.237Z,0
2018-01-20T04:47:47.550Z,0
2018-01-20T04:50:50.489Z,0
2018-01-20T04:51:37.061Z,0
2018-01-20T04:52:15.750Z,0
2018-01-20T04:52:56.208Z,0
2018-01-20T04:53:36.662Z,0
2018-01-20T04:54:17.039Z,0
2018-01-20T04:54:57.537Z,0
2018-01-20T04:55:37.942Z,0
2018-01-20T04:56:18.334Z,0
2018-01-20T04:56:58.681Z,0
2018-01-20T04:57:39.047Z,0
2018-01-20T04:58:19.511Z,0
2018-01-20T04:58:59.807Z,0
2018-01-20T04:59:40.196Z,0
2018-01-20T05:00:20.699Z,0
2018-01-20T05:01:01.073Z,0
2018-01-20T05:08:14.558Z,0
2018-01-20T05:09:05.525Z,0
2018-01-20T05:09:53.275Z,0
2018-01-20T05:10:35.394Z,0
2018-01-20T05:11:15.859Z,0
2018-01-20T05:11:56.471Z,0
2018-01-20T05:12:36.828Z,0
2018-01-20T05:13:17.234Z,0
2018-01-20T05:13:57.600Z,0
2018-01-20T05:14:38.030Z,0
2018-01-20T05:15:18.427Z,0
2018-01-20T05:15:58.879Z,0
2018-01-20T05:16:39.235Z,0
2018-01-20T05:17:19.815Z,0
2018-01-20T05:18:00.118Z,0
2018-01-20T05:18:40.672Z,0
2018-01-20T05:19:21.029Z,0
2018-01-20T05:20:01.479Z,0
2018-01-20T05:20:41.803Z,0
2018-01-20T05:21:22.263Z,0
2018-01-20T05:22:02.700Z,0
2018-01-20T05:22:43.121Z,0
2018-01-20T05:23:23.905Z,0
2018-01-20T05:24:04.167Z,0
2018-01-20T05:24:44.651Z,0
2018-01-20T05:25:25.134Z,0
2018-01-20T05:26:05.503Z,0
2018-01-20T05:26:46.614Z,0
2018-01-20T05:27:26.333Z,0
2018-01-20T05:28:06.822Z,0
2018-01-20T05:28:47.432Z,0
2018-01-20T05:29:27.806Z,0
2018-01-20T05:30:08.364Z,0
2018-01-20T05:30:48.728Z,0
2018-01-20T05:31:29.061Z,0
2018-01-20T05:32:09.548Z,0
2018-01-20T05:32:50.063Z,0
2018-01-20T05:33:30.381Z,0
2018-01-20T05:34:10.951Z,0
2018-01-20T05:46:20.016Z,0
2018-01-20T05:47:12.443Z,0
2018-01-20T05:48:09.432Z,0
2018-01-20T05:49:04.137Z,0
2018-01-20T05:49:57.725Z,0
2018-01-20T05:50:51.550Z,0
2018-01-20T05:51:44.213Z,0
2018-01-20T05:52:36.825Z,0
2018-01-20T05:53:29.754Z,0
2018-01-20T05:54:23.837Z,0
2018-01-20T05:55:16.172Z,0
2018-01-20T05:56:10.023Z,0
2018-01-20T05:57:03.094Z,0
2018-01-20T05:57:56.526Z,0
2018-01-20T05:58:49.935Z,0
2018-01-20T05:59:42.076Z,0
2018-01-20T06:00:34.416Z,0
2018-01-20T06:01:27.127Z,0
2018-01-20T06:02:19.259Z,0
2018-01-20T06:03:11.394Z,0
2018-01-20T06:04:03.945Z,0
2018-01-20T06:04:56.486Z,0
2018-01-20T06:05:49.363Z,0
2018-01-20T06:06:41.444Z,0
2018-01-20T06:07:34.010Z,0
2018-01-20T06:08:26.347Z,0
2018-01-20T06:09:19.015Z,0
2018-01-20T06:10:11.226Z,0
2018-01-20T06:11:04.386Z,0
2018-01-20T06:11:58.934Z,0
2018-01-20T06:12:51.419Z,0
2018-01-20T06:13:44.221Z,0
2018-01-20T06:14:37.429Z,0
2018-01-20T06:15:30.625Z,0
2018-01-20T06:16:22.909Z,0
2018-01-20T06:17:16.929Z,0
2018-01-20T06:18:09.804Z,0
2018-01-20T06:19:02.920Z,0
2018-01-20T06:19:58.235Z,0
2018-01-20T06:20:50.977Z,0
2018-01-20T06:21:43.411Z,0
2018-01-20T06:22:35.882Z,0
2018-01-20T06:23:29.823Z,0
2018-01-20T06:24:24.604Z,0
2018-01-20T06:25:17.442Z,0
2018-01-20T06:26:10.384Z,0
2018-01-20T06:27:02.931Z,0
2018-01-20T06:27:55.531Z,0
2018-01-20T06:28:50.383Z,0
2018-01-20T06:29:43.726Z,0
2018-01-20T06:30:36.011Z,0
2018-01-20T06:31:29.324Z,0
2018-01-20T06:32:21.453Z,0
2018-01-20T06:33:15.568Z,0
2018-01-20T06:34:08.257Z,0
2018-01-20T06:35:01.874Z,0
2018-01-20T06:35:54.121Z,0
2018-01-20T06:36:46.638Z,0
2018-01-20T06:37:40.151Z,0
2018-01-20T06:38:33.152Z,0
2018-01-20T06:39:25.984Z,0
2018-01-20T06:40:18.595Z,0
2018-01-20T06:41:11.941Z,0
2018-01-20T06:42:05.231Z,0
2018-01-20T06:42:57.833Z,0
2018-01-20T06:43:51.548Z,0
2018-01-20T06:44:45.226Z,0
2018-01-20T06:45:39.755Z,0
2018-01-20T06:46:36.414Z,0
2018-01-20T06:47:31.227Z,0
2018-01-20T06:48:28.874Z,0
2018-01-20T06:49:26.188Z,0
2018-01-20T06:50:26.790Z,0
2018-01-20T06:51:25.072Z,0
2018-01-20T06:52:17.830Z,0
2018-01-20T06:53:14.707Z,0
2018-01-20T06:54:08.676Z,0
2018-01-20T06:55:03.341Z,0
2018-01-20T06:55:58.937Z,4
2018-01-20T06:56:54.478Z,0
2018-01-20T06:57:48.935Z,0
2018-01-20T06:58:41.490Z,4
2018-01-20T06:59:38.393Z,0
2018-01-20T07:00:30.967Z,4
2018-01-20T07:01:24.490Z,4
2018-01-20T07:02:19.743Z,8
2018-01-20T07:03:13.714Z,8
2018-01-20T07:07:39.438Z,12
2018-01-20T07:08:31.877Z,12
2018-01-20T07:09:29.376Z,12
2018-01-20T07:10:25.578Z,16
2018-01-20T07:11:20.538Z,16
2018-01-20T07:12:18.381Z,16
2018-01-20T07:13:16.429Z,24
2018-01-20T07:14:27.139Z,24
2018-01-20T07:15:21.078Z,28
2018-01-20T07:16:20.610Z,32
2018-01-20T07:17:17.521Z,36
2018-01-20T07:18:22.569Z,40
2018-01-20T10:49:25.688Z,408
2018-01-20T10:50:06.577Z,404
2018-01-20T10:50:50.627Z,396
2018-01-20T10:51:34.611Z,400
2018-01-20T10:52:13.869Z,400
2018-01-20T10:52:54.271Z,404
2018-01-20T10:53:34.816Z,412
2018-01-20T10:54:15.381Z,408
2018-01-20T10:54:57.138Z,408
2018-01-20T10:55:37.790Z,408
2018-01-20T10:56:19.295Z,404
2018-01-20T10:57:00.922Z,408
2018-01-20T10:57:42.155Z,416
2018-01-20T10:58:23.704Z,420
2018-01-20T10:59:04.165Z,432
2018-01-20T10:59:44.602Z,432
2018-01-20T11:00:25.039Z,436
2018-01-20T11:01:05.409Z,436
2018-01-20T11:01:45.832Z,432
2018-01-20T11:02:26.247Z,432
2018-01-20T11:03:06.669Z,420
2018-01-20T11:03:47.059Z,412
2018-01-20T11:04:27.442Z,404
2018-01-20T11:05:07.855Z,392
2018-01-20T11:05:48.326Z,384
2018-01-20T11:06:28.625Z,380
2018-01-20T11:07:09.080Z,380
2018-01-20T11:07:49.596Z,384
2018-01-20T11:08:29.976Z,380
2018-01-20T11:09:10.368Z,380
2018-01-20T11:09:50.789Z,376
2018-01-20T11:10:31.151Z,376
2018-01-20T11:11:11.544Z,380
2018-01-20T11:11:52.025Z,376
2018-01-20T11:12:32.480Z,376
2018-01-20T11:13:12.933Z,376
2018-01-20T11:13:53.333Z,376
2018-01-20T11:14:33.812Z,380
2018-01-20T11:15:14.255Z,388
2018-01-20T11:15:54.609Z,392
2018-01-20T11:16:35.057Z,400
2018-01-20T11:17:15.442Z,408
2018-01-20T11:17:55.862Z,416
2018-01-20T11:18:36.293Z,428
2018-01-20T11:19:16.679Z,436
2018-01-20T11:19:57.092Z,444
2018-01-20T11:20:37.558Z,456
2018-01-20T11:21:17.942Z,464
2018-01-20T11:21:58.387Z,468
2018-01-20T11:22:38.879Z,468
2018-01-20T11:23:19.282Z,472
2018-01-20T11:23:59.631Z,468
2018-01-20T11:24:40.048Z,464
2018-01-20T11:25:20.560Z,464
2018-01-20T11:26:00.941Z,460
2018-01-20T11:26:41.406Z,460
2018-01-20T11:27:21.870Z,460
2018-01-20T11:28:02.339Z,460
2018-01-20T11:28:42.742Z,460
2018-01-20T11:29:23.129Z,456
2018-01-20T11:30:03.606Z,452
2018-01-20T11:30:44.017Z,440
2018-01-20T11:31:24.358Z,428
2018-01-20T11:32:04.951Z,424
2018-01-20T11:32:45.428Z,428
2018-01-20T11:33:25.903Z,428
2018-01-20T11:34:06.281Z,424
2018-01-20T11:34:46.650Z,424
2018-01-20T11:35:27.096Z,424
2018-01-20T11:36:07.482Z,408
2018-01-20T11:36:47.907Z,384
2018-01-20T11:37:29.283Z,368
2018-01-20T11:38:10.546Z,352
2018-01-20T11:38:50.941Z,344
2018-01-20T11:39:34.332Z,344
2018-01-20T11:40:14.861Z,348
2018-01-20T11:40:55.601Z,344
2018-01-20T11:41:36.441Z,344
2018-01-20T11:42:18.028Z,340
2018-01-20T11:42:57.733Z,336
2018-01-20T11:43:38.174Z,328
2018-01-20T11:44:18.570Z,316
2018-01-20T11:45:13.874Z,312
2018-01-20T11:45:54.334Z,304
2018-01-20T11:46:34.726Z,300
2018-01-20T11:47:15.139Z,300
2018-01-20T11:47:55.545Z,300
2018-01-20T11:48:36.015Z,300
2018-01-20T11:49:16.368Z,300
2018-01-20T11:49:56.838Z,308
2018-01-20T11:50:37.196Z,308
2018-01-20T11:51:17.581Z,308
2018-01-20T11:51:57.972Z,312
2018-01-20T11:52:38.368Z,316
2018-01-20T11:53:18.824Z,316
2018-01-20T11:53:59.197Z,312
2018-01-20T11:54:39.620Z,308
2018-01-20T11:55:20.007Z,312
2018-01-20T11:56:00.419Z,312
2018-01-20T11:56:40.804Z,312
2018-01-20T11:57:21.216Z,316
2018-01-20T11:58:01.583Z,316
2018-01-20T11:58:42.022Z,312
2018-01-20T11:59:22.434Z,312
2018-01-20T12:00:02.878Z,316
2018-01-20T12:00:43.316Z,312
2018-01-20T12:01:23.690Z,324
2018-01-20T12:02:04.042Z,320
2018-01-20T12:02:44.382Z,320
2018-01-20T12:03:24.793Z,316
2018-01-20T12:04:05.181Z,320
2018-01-20T12:04:45.629Z,316
2018-01-20T12:05:26.107Z,316
2018-01-20T12:06:06.413Z,312
2018-01-20T12:06:46.861Z,316
2018-01-20T12:07:27.245Z,312
2018-01-20T12:08:07.661Z,312
2018-01-20T12:08:48.026Z,312
2018-01-20T12:09:28.415Z,308
2018-01-20T12:10:08.878Z,308
2018-01-20T12:10:49.284Z,308
2018-01-20T12:11:29.640Z,308
2018-01-20T12:12:10.088Z,300
2018-01-20T12:12:50.471Z,296
2018-01-20T12:13:30.881Z,292
2018-01-20T12:14:11.257Z,284
2018-01-20T12:14:51.671Z,280
2018-01-20T12:15:32.041Z,284
2018-01-20T12:16:12.459Z,284
2018-01-20T12:16:52.768Z,292
2018-01-20T12:17:33.180Z,296
2018-01-20T12:18:13.598Z,296
2018-01-20T12:20:42.417Z,296
2018-01-20T12:21:22.837Z,300
2018-01-20T12:22:03.267Z,300
2018-01-20T12:22:43.633Z,296
2018-01-20T12:25:17.858Z,284
2018-01-20T12:25:58.260Z,272
2018-01-20T12:26:38.637Z,268
2018-01-20T12:27:19.056Z,260
2018-01-20T12:27:59.435Z,264
2018-01-20T12:28:39.794Z,276
2018-01-20T12:29:20.156Z,276
2018-01-20T12:30:00.580Z,276
2018-01-20T12:30:40.984Z,284
2018-01-20T12:31:21.335Z,280
2018-01-20T12:32:01.721Z,260
2018-01-20T12:32:42.172Z,244
2018-01-20T12:33:22.554Z,252
2018-01-20T12:34:03.011Z,260
2018-01-20T12:34:43.416Z,264
2018-01-20T12:35:23.781Z,252
2018-01-20T12:36:04.280Z,248
2018-01-20T12:36:44.643Z,252
2018-01-20T12:37:24.976Z,252
2018-01-20T12:38:05.381Z,256
2018-01-20T12:38:45.776Z,252
2018-01-20T12:39:26.233Z,252
2018-01-20T12:40:06.616Z,236
2018-01-20T12:40:46.978Z,244
2018-01-20T12:41:27.360Z,248
2018-01-20T12:42:07.709Z,248
2018-01-20T12:42:48.137Z,252
2018-01-20T12:43:28.604Z,256
2018-01-20T12:44:08.933Z,252
2018-01-20T12:44:49.288Z,252
2018-01-20T12:45:29.684Z,252
2018-01-20T12:46:10.069Z,252
2018-01-20T12:46:50.486Z,248
2018-01-20T12:47:30.906Z,240
2018-01-20T12:48:11.287Z,248
2018-01-20T12:48:51.723Z,252
2018-01-20T12:49:32.054Z,260
2018-01-20T12:50:12.455Z,268
2018-01-20T12:50:52.997Z,264
2018-01-20T12:51:33.410Z,272
2018-01-20T12:52:13.777Z,288
2018-01-20T12:52:54.172Z,288
2018-01-20T12:53:34.547Z,288
2018-01-20T12:54:14.989Z,288
2018-01-20T12:54:55.391Z,280
2018-01-20T12:55:35.795Z,284
2018-01-20T12:56:16.208Z,276
2018-01-20T12:56:56.568Z,272
2018-01-20T12:57:36.991Z,268
2018-01-20T12:58:17.402Z,260
2018-01-20T12:58:57.727Z,268
2018-01-20T12:59:38.148Z,280
2018-01-20T13:00:18.512Z,288
2018-01-20T13:00:58.880Z,284
2018-01-20T13:01:39.347Z,272
2018-01-20T13:02:19.692Z,276
2018-01-20T13:03:00.147Z,272
2018-01-20T13:03:40.592Z,260
2018-01-20T13:04:20.980Z,248
2018-01-20T13:05:01.375Z,240
2018-01-20T13:05:41.795Z,240
2018-01-20T13:06:22.182Z,236
2018-01-20T13:07:02.569Z,224
2018-01-20T13:07:42.916Z,216
2018-01-20T13:08:23.377Z,208
2018-01-20T13:09:03.767Z,200
2018-01-20T13:09:44.181Z,200
2018-01-20T13:10:24.528Z,216
2018-01-20T13:11:04.961Z,212
2018-01-20T13:11:45.388Z,208
2018-01-20T13:12:25.748Z,208
2018-01-20T13:13:06.153Z,208
2018-01-20T13:13:46.517Z,212
2018-01-20T13:14:26.910Z,212
2018-01-20T13:15:07.318Z,220
2018-01-20T13:15:47.698Z,216
2018-01-20T13:16:28.100Z,220
2018-01-20T13:17:08.464Z,216
2018-01-20T13:17:48.897Z,216
2018-01-20T13:18:29.305Z,224
2018-01-20T13:19:09.713Z,224
2018-01-20T13:19:50.090Z,220
2018-01-20T13:20:30.517Z,232
2018-01-20T13:21:10.869Z,232
2018-01-20T13:21:51.281Z,236
2018-01-20T13:22:31.687Z,232
2018-01-20T13:23:12.102Z,236
2018-01-20T13:23:52.493Z,236
2018-01-20T13:24:32.873Z,236
2018-01-20T13:25:13.259Z,240
2018-01-20T13:25:53.659Z,240
2018-01-20T13:26:34.077Z,228
2018-01-20T13:27:14.424Z,228
2018-01-20T13:27:54.789Z,236
2018-01-20T13:28:35.228Z,228
2018-01-20T13:29:15.582Z,216
2018-01-20T13:29:56.015Z,216
2018-01-20T13:30:36.429Z,212
2018-01-20T13:31:16.851Z,204
2018-01-20T13:31:57.220Z,200
2018-01-20T13:32:37.632Z,188
2018-01-20T13:33:18.047Z,184
2018-01-20T13:33:58.464Z,172
2018-01-20T13:34:38.815Z,176
2018-01-20T13:35:19.277Z,172
2018-01-20T13:35:59.803Z,172
2018-01-20T13:36:40.186Z,164
2018-01-20T13:37:20.602Z,164
2018-01-20T13:38:00.944Z,168
2018-01-20T13:38:41.319Z,160
2018-01-20T13:39:21.743Z,160
2018-01-20T13:40:02.092Z,160
2018-01-20T13:40:42.506Z,160
2018-01-20T13:41:23.041Z,164
2018-01-20T13:42:03.446Z,156
2018-01-20T13:42:43.916Z,152
2018-01-20T13:43:24.251Z,160
2018-01-20T13:44:04.717Z,160
2018-01-20T13:44:45.136Z,156
2018-01-20T13:45:25.551Z,152
2018-01-20T13:46:05.899Z,148
2018-01-20T13:46:46.400Z,144
2018-01-20T13:47:26.784Z,152
2018-01-20T13:48:07.246Z,156
2018-01-20T13:48:47.618Z,152
2018-01-20T13:49:27.960Z,148
2018-01-20T13:50:08.439Z,160
2018-01-20T13:50:48.793Z,160
2018-01-20T13:51:29.202Z,160
2018-01-20T13:52:09.608Z,168
2018-01-20T13:52:50.058Z,164
2018-01-20T13:53:30.464Z,168
2018-01-20T13:54:10.805Z,172
2018-01-20T13:54:51.220Z,176
2018-01-20T13:55:31.648Z,176
2018-01-20T13:56:12.064Z,180
2018-01-20T13:56:52.453Z,184
2018-01-20T13:57:32.912Z,180
2018-01-20T13:58:13.250Z,188
2018-01-20T13:58:53.684Z,188
2018-01-20T13:59:34.101Z,192
2018-01-20T14:00:14.440Z,196
2018-01-20T14:00:54.830Z,196
2018-01-20T14:01:35.202Z,192
2018-01-20T14:02:15.667Z,196
2018-01-20T14:02:56.035Z,200
2018-01-20T14:03:36.444Z,204
2018-01-20T14:04:16.830Z,204
2018-01-20T14:04:57.318Z,204
2018-01-20T14:05:37.693Z,204
2018-01-20T14:06:18.106Z,200
2018-01-20T14:06:58.496Z,196
2018-01-20T14:07:38.886Z,188
2018-01-20T14:08:19.272Z,184
2018-01-20T14:08:59.730Z,184
2018-01-20T14:09:40.159Z,176
2018-01-20T14:10:20.524Z,172
2018-01-20T14:11:00.915Z,172
2018-01-20T14:11:41.366Z,168
2018-01-20T14:12:21.735Z,160
2018-01-20T14:13:02.099Z,164
2018-01-20T14:13:42.504Z,164
2018-01-20T14:14:22.947Z,168
2018-01-20T14:15:03.313Z,168
2018-01-20T14:15:43.712Z,156
2018-01-20T14:16:24.126Z,160
2018-01-20T14:17:04.510Z,156
2018-01-20T14:17:44.873Z,168
2018-01-20T14:18:25.261Z,164
2018-01-20T14:19:05.668Z,164
2018-01-20T14:19:46.090Z,164
2018-01-20T14:20:26.475Z,176
2018-01-20T14:21:06.919Z,176
2018-01-20T14:21:47.336Z,172
2018-01-20T14:22:27.759Z,172
2018-01-20T14:23:08.102Z,164
2018-01-20T14:23:48.532Z,164
2018-01-20T14:24:28.952Z,160
2018-01-20T14:25:09.391Z,152
2018-01-20T14:25:49.839Z,144
2018-01-20T14:26:30.178Z,136
2018-01-20T14:27:10.572Z,132
2018-01-20T14:27:50.970Z,128
2018-01-20T14:28:31.442Z,120
2018-01-20T14:29:11.838Z,116
2018-01-20T14:29:52.228Z,112
2018-01-20T14:30:32.540Z,108
2018-01-20T14:31:12.976Z,108
2018-01-20T14:31:53.371Z,104
2018-01-20T14:32:33.752Z,96
2018-01-20T14:33:14.144Z,96
2018-01-20T14:33:54.493Z,100
2018-01-20T14:34:34.897Z,96
2018-01-20T14:35:15.269Z,96
2018-01-20T14:35:55.664Z,96
2018-01-20T14:36:36.049Z,96
2018-01-20T14:37:16.440Z,96
2018-01-20T14:37:56.803Z,100
2018-01-20T14:38:37.200Z,100
2018-01-20T14:39:17.577Z,92
2018-01-20T14:39:57.953Z,96
2018-01-20T14:40:38.379Z,100
2018-01-20T14:41:18.737Z,96
2018-01-20T14:41:59.162Z,104
2018-01-20T14:42:39.500Z,104
2018-01-20T14:43:19.959Z,104
2018-01-20T14:44:00.374Z,104
2018-01-20T14:44:40.764Z,96
2018-01-20T14:45:21.150Z,92
2018-01-20T14:46:01.563Z,92
2018-01-20T14:46:41.947Z,92
2018-01-20T14:47:22.338Z,96
2018-01-20T14:48:02.738Z,88
2018-01-20T14:48:43.134Z,84
2018-01-20T14:49:23.564Z,84
2018-01-20T14:50:03.947Z,80
2018-01-20T14:50:44.364Z,76
2018-01-20T14:51:24.780Z,84
2018-01-20T14:52:05.108Z,88
2018-01-20T14:52:45.475Z,84
2018-01-20T14:53:25.921Z,80
2018-01-20T14:54:06.289Z,76
2018-01-20T14:54:46.734Z,76
2018-01-20T14:55:27.088Z,80
2018-01-20T14:56:07.464Z,76
2018-01-20T14:56:47.880Z,76
2018-01-20T14:57:28.251Z,76
2018-01-20T14:58:08.657Z,76
2018-01-20T14:58:49.060Z,72
2018-01-20T14:59:29.572Z,68
2018-01-20T15:00:10.008Z,76
2018-01-20T15:00:50.378Z,72
2018-01-20T15:01:30.765Z,72
2018-01-20T15:02:11.126Z,72
2018-01-20T15:02:51.601Z,72
2018-01-20T15:03:31.978Z,76
2018-01-20T15:04:12.361Z,72
2018-01-20T15:04:52.716Z,68